createdAt,value
2023-01-13T00:01:52.268Z,60.10
2023-01-13T00:04:20.496Z,60.00
2023-01-13T00:06:47.272Z,60.20
2023-01-13T00:09:14.125Z,60.00
2023-01-13T00:11:41.119Z,59.80
2023-01-13T00:14:07.897Z,60.00
2023-01-13T00:16:34.722Z,59.90
2023-01-13T00:19:01.545Z,59.90
2023-01-13T00:21:29.816Z,59.80
2023-01-13T00:23:56.641Z,59.70
2023-01-13T00:26:25.376Z,59.70
2023-01-13T00:28:58.224Z,59.70
2023-01-13T00:31:25.325Z,59.70
2023-01-13T00:33:52.295Z,59.50
2023-01-13T00:36:20.903Z,59.50
2023-01-13T00:38:49.475Z,59.50
2023-01-13T00:41:18.597Z,59.40
2023-01-13T00:43:45.903Z,59.50
2023-01-13T00:46:14.734Z,59.60
2023-01-13T00:48:41.884Z,59.40
2023-01-13T00:51:11.432Z,59.40
2023-01-13T00:53:39.679Z,59.40
2023-01-13T00:56:11.019Z,59.30
2023-01-13T00:58:37.827Z,59.50
2023-01-13T01:01:06.703Z,59.60
2023-01-13T01:03:34.177Z,59.30
2023-01-13T01:06:06.219Z,59.30
2023-01-13T01:08:33.656Z,59.40
2023-01-13T01:11:02.021Z,59.30
2023-01-13T01:13:30.431Z,59.30
2023-01-13T01:15:57.375Z,59.40
2023-01-13T01:18:24.227Z,59.30
2023-01-13T01:20:51.058Z,59.30
2023-01-13T01:23:17.885Z,59.30
2023-01-13T01:25:44.843Z,59.30
2023-01-13T01:28:11.627Z,59.20
2023-01-13T01:30:40.510Z,59.20
2023-01-13T01:33:07.377Z,59.30
2023-01-13T01:35:34.180Z,59.30
2023-01-13T01:38:01.011Z,59.20
2023-01-13T01:40:27.963Z,59.10
2023-01-13T01:42:54.865Z,59.80
2023-01-13T01:45:23.353Z,59.20
2023-01-13T01:47:55.044Z,59.20
2023-01-13T01:50:22.560Z,59.30
2023-01-13T01:52:54.046Z,59.20
2023-01-13T01:55:23.391Z,59.20
2023-01-13T01:57:55.018Z,59.20
2023-01-13T02:00:22.280Z,59.30
2023-01-13T02:02:52.409Z,59.50
2023-01-13T02:05:19.474Z,59.20
2023-01-13T02:07:49.314Z,59.30
2023-01-13T02:10:19.369Z,59.20
2023-01-13T02:12:47.635Z,59.30
2023-01-13T02:15:16.341Z,59.20
2023-01-13T02:18:05.661Z,59.20
2023-01-13T02:20:52.386Z,59.10
2023-01-13T02:23:54.898Z,59.20
2023-01-13T02:26:58.739Z,59.20
2023-01-13T02:29:49.002Z,59.30
2023-01-13T02:32:22.777Z,59.60
2023-01-13T02:34:55.862Z,59.70
2023-01-13T02:37:28.674Z,59.60
2023-01-13T02:39:59.683Z,59.60
2023-01-13T02:42:30.957Z,59.60
2023-01-13T02:45:04.596Z,59.70
2023-01-13T02:47:34.254Z,59.50
2023-01-13T02:50:03.954Z,59.60
2023-01-13T02:52:35.610Z,59.60
2023-01-13T02:55:06.932Z,59.60
2023-01-13T02:57:36.735Z,59.60
2023-01-13T03:00:08.381Z,59.80
2023-01-13T03:02:35.090Z,59.50
2023-01-13T03:05:01.895Z,59.70
2023-01-13T03:08:06.719Z,59.60
2023-01-13T03:10:53.371Z,59.70
2023-01-13T03:13:30.969Z,59.80
2023-01-13T03:16:10.665Z,59.80
2023-01-13T03:18:45.236Z,59.80
2023-01-13T03:21:18.377Z,60.00
2023-01-13T03:23:51.367Z,60.00
2023-01-13T03:26:24.714Z,59.80
2023-01-13T03:28:56.997Z,59.90
2023-01-13T03:31:31.787Z,59.80
2023-01-13T03:34:01.847Z,59.70
2023-01-13T03:36:30.468Z,59.60
2023-01-13T03:39:03.700Z,59.80
2023-01-13T03:41:34.623Z,59.80
2023-01-13T03:44:06.041Z,59.80
2023-01-13T03:46:39.974Z,59.70
2023-01-13T03:49:08.814Z,59.70
2023-01-13T03:51:39.007Z,59.60
2023-01-13T03:54:09.096Z,59.70
2023-01-13T03:56:39.747Z,60.00
2023-01-13T03:59:10.454Z,60.20
2023-01-13T04:01:46.925Z,60.30
2023-01-13T04:04:18.749Z,59.80
2023-01-13T04:06:53.935Z,59.80
2023-01-13T04:09:29.425Z,59.90
2023-01-13T04:12:01.991Z,60.10
2023-01-13T04:14:29.648Z,59.90
2023-01-13T04:16:57.787Z,59.90
2023-01-13T04:19:24.621Z,60.00
2023-01-13T04:21:51.388Z,59.90
2023-01-13T04:24:18.093Z,59.70
2023-01-13T04:26:44.767Z,59.80
2023-01-13T04:29:12.264Z,59.70
2023-01-13T04:31:39.757Z,59.70
2023-01-13T04:34:07.828Z,59.70
2023-01-13T04:36:34.568Z,59.80
2023-01-13T04:39:01.461Z,59.80
2023-01-13T04:41:28.239Z,59.80
2023-01-13T04:43:54.901Z,59.80
2023-01-13T04:46:21.702Z,60.10
2023-01-13T04:48:48.471Z,60.00
2023-01-13T04:51:16.518Z,60.00
2023-01-13T04:53:43.181Z,60.10
2023-01-13T04:56:09.904Z,60.30
2023-01-13T04:58:37.113Z,60.10
2023-01-13T05:01:03.824Z,60.00
2023-01-13T05:03:30.530Z,60.20
2023-01-13T05:05:57.289Z,60.20
2023-01-13T05:08:25.534Z,59.90
2023-01-13T05:10:52.274Z,59.90
2023-01-13T05:13:19.009Z,60.00
2023-01-13T05:15:45.829Z,59.70
2023-01-13T05:18:13.053Z,59.60
2023-01-13T05:20:40.059Z,59.70
2023-01-13T05:23:06.767Z,59.60
2023-01-13T05:25:44.191Z,59.50
2023-01-13T05:28:11.229Z,59.50
2023-01-13T05:30:39.679Z,59.30
2023-01-13T05:33:06.334Z,59.20
2023-01-13T05:35:33.054Z,59.00
2023-01-13T05:37:59.847Z,58.90
2023-01-13T05:40:26.660Z,58.70
2023-01-13T05:43:02.944Z,58.60
2023-01-13T05:45:30.891Z,57.90
2023-01-13T05:47:57.646Z,58.00
2023-01-13T05:50:24.511Z,57.60
2023-01-13T05:52:51.250Z,56.40
2023-01-13T05:55:18.017Z,56.30
2023-01-13T05:57:44.740Z,55.70
2023-01-13T06:00:14.035Z,56.60
2023-01-13T06:02:40.760Z,55.60
2023-01-13T06:05:08.209Z,55.70
2023-01-13T06:07:34.933Z,54.70
2023-01-13T06:10:01.704Z,54.40
2023-01-13T06:12:28.402Z,54.50
2023-01-13T06:14:55.120Z,54.50
2023-01-13T06:17:23.129Z,55.20
2023-01-13T06:19:49.901Z,55.40
2023-01-13T06:22:18.911Z,55.40
2023-01-13T06:24:46.023Z,55.80
2023-01-13T06:27:13.126Z,55.30
2023-01-13T06:29:39.796Z,55.00
2023-01-13T06:32:11.939Z,55.70
2023-01-13T06:34:42.811Z,54.80
2023-01-13T06:37:12.320Z,55.20
2023-01-13T06:39:39.389Z,55.30
2023-01-13T06:42:06.953Z,55.20
2023-01-13T06:44:33.747Z,54.90
2023-01-13T06:47:00.549Z,55.30
2023-01-13T06:49:27.305Z,55.30
2023-01-13T06:51:55.391Z,55.00
2023-01-13T06:54:22.060Z,54.70
2023-01-13T06:56:48.837Z,54.90
2023-01-13T06:59:15.598Z,54.90
2023-01-13T07:01:42.465Z,54.80
2023-01-13T07:04:09.269Z,55.00
2023-01-13T07:06:35.985Z,55.30
2023-01-13T07:09:06.010Z,55.30
2023-01-13T07:11:33.508Z,55.40
2023-01-13T07:14:01.382Z,55.50
2023-01-13T07:16:28.144Z,55.70
2023-01-13T07:18:55.045Z,55.60
2023-01-13T07:21:21.753Z,55.90
2023-01-13T07:23:48.643Z,55.90
2023-01-13T07:26:16.932Z,55.50
2023-01-13T07:28:43.646Z,55.50
2023-01-13T07:31:15.146Z,55.70
2023-01-13T07:33:41.885Z,56.00
2023-01-13T07:36:09.289Z,56.00
2023-01-13T07:38:36.327Z,55.70
2023-01-13T07:41:03.044Z,55.40
2023-01-13T07:43:31.113Z,55.60
2023-01-13T07:45:58.562Z,55.80
2023-01-13T07:48:25.977Z,55.20
2023-01-13T07:50:52.928Z,55.40
2023-01-13T07:53:19.604Z,55.60
2023-01-13T07:55:46.315Z,55.90
2023-01-13T07:58:13.031Z,55.80
2023-01-13T08:00:41.058Z,55.70
2023-01-13T08:03:07.818Z,55.70
2023-01-13T08:05:35.017Z,55.80
2023-01-13T08:08:02.010Z,55.90
2023-01-13T08:10:28.708Z,56.10
2023-01-13T08:12:57.219Z,56.20
2023-01-13T08:15:24.154Z,56.10
2023-01-13T08:17:52.194Z,55.90
2023-01-13T08:20:19.021Z,56.00
2023-01-13T08:22:45.715Z,56.10
2023-01-13T08:25:12.530Z,55.90
2023-01-13T08:27:39.331Z,55.90
2023-01-13T08:30:07.401Z,55.90
2023-01-13T08:32:34.101Z,55.70
2023-01-13T08:35:02.187Z,55.70
2023-01-13T08:37:28.945Z,55.80
2023-01-13T08:39:55.613Z,55.70
2023-01-13T08:42:22.386Z,55.60
2023-01-13T08:44:49.060Z,56.30
2023-01-13T08:47:15.740Z,55.60
2023-01-13T08:49:42.411Z,55.50
2023-01-13T08:52:10.502Z,55.50
2023-01-13T08:54:37.922Z,55.40
2023-01-13T08:57:04.920Z,55.30
2023-01-13T08:59:32.175Z,55.40
2023-01-13T09:01:59.058Z,55.20
2023-01-13T09:04:27.904Z,55.10
2023-01-13T09:06:55.378Z,55.20
2023-01-13T09:09:23.870Z,55.40
2023-01-13T09:11:51.663Z,55.30
2023-01-13T09:14:19.619Z,55.30
2023-01-13T09:16:46.392Z,55.20
2023-01-13T09:19:13.287Z,54.60
2023-01-13T09:21:40.118Z,54.90
2023-01-13T09:24:07.518Z,55.00
2023-01-13T09:26:37.198Z,54.60
2023-01-13T09:29:04.140Z,54.30
2023-01-13T09:31:31.095Z,54.40
2023-01-13T09:33:57.874Z,54.50
2023-01-13T09:36:24.568Z,54.30
2023-01-13T09:38:51.262Z,54.70
2023-01-13T09:41:20.543Z,54.50
2023-01-13T09:43:54.069Z,54.60
2023-01-13T09:46:26.372Z,54.90
2023-01-13T09:48:53.541Z,54.80
2023-01-13T09:51:28.058Z,54.90
2023-01-13T09:53:59.905Z,55.20
2023-01-13T09:56:26.698Z,55.70
2023-01-13T09:58:54.725Z,55.60
2023-01-13T10:01:27.284Z,55.70
2023-01-13T10:03:54.156Z,55.20
2023-01-13T10:06:24.207Z,55.60
2023-01-13T10:08:51.359Z,55.20
2023-01-13T10:11:20.433Z,55.10
2023-01-13T10:13:50.759Z,55.40
2023-01-13T10:16:27.407Z,55.20
2023-01-13T10:19:03.475Z,55.80
2023-01-13T10:21:49.157Z,55.60
2023-01-13T10:24:22.907Z,54.80
2023-01-13T10:26:56.952Z,54.80
2023-01-13T10:29:25.612Z,54.60
2023-01-13T10:31:55.247Z,55.10
2023-01-13T10:34:23.188Z,55.20
2023-01-13T10:36:58.638Z,54.80
2023-01-13T10:39:25.824Z,54.80
2023-01-13T10:42:02.017Z,55.10
2023-01-13T10:44:28.721Z,55.20
2023-01-13T10:46:58.964Z,55.30
2023-01-13T10:49:30.556Z,54.70
2023-01-13T10:51:57.365Z,55.10
2023-01-13T10:54:25.512Z,55.20
2023-01-13T10:57:14.015Z,55.00
2023-01-13T10:59:40.721Z,54.70
2023-01-13T11:02:25.886Z,54.80
2023-01-13T11:05:03.377Z,55.10
2023-01-13T11:07:33.680Z,55.10
2023-01-13T11:10:20.199Z,55.40
2023-01-13T11:12:53.677Z,54.80
2023-01-13T11:15:24.965Z,55.00
2023-01-13T11:17:58.596Z,55.10
2023-01-13T11:20:30.216Z,54.00
2023-01-13T11:23:01.141Z,54.00
2023-01-13T11:25:31.452Z,53.00
2023-01-13T11:28:00.722Z,51.60
2023-01-13T11:30:38.383Z,51.10
2023-01-13T11:33:36.587Z,51.30
2023-01-13T11:36:12.211Z,52.40
2023-01-13T11:38:44.451Z,51.90
2023-01-13T11:41:20.896Z,49.80
2023-01-13T11:43:54.307Z,50.40
2023-01-13T11:46:25.650Z,52.10
2023-01-13T11:48:54.941Z,51.90
2023-01-13T11:51:32.977Z,50.10
2023-01-13T11:54:27.443Z,49.70
2023-01-13T11:57:24.308Z,48.90
2023-01-13T12:00:14.289Z,51.00
2023-01-13T12:02:52.440Z,50.50
2023-01-13T12:05:27.969Z,51.20
2023-01-13T12:08:01.123Z,50.60
2023-01-13T12:10:42.759Z,49.10
2023-01-13T12:13:21.792Z,50.40
2023-01-13T12:16:03.785Z,50.40
2023-01-13T12:18:49.139Z,50.80
2023-01-13T12:21:20.827Z,51.40
2023-01-13T12:23:55.524Z,51.40
2023-01-13T12:26:23.012Z,51.00
2023-01-13T12:28:55.886Z,52.30
2023-01-13T12:31:24.850Z,50.40
2023-01-13T12:34:05.831Z,51.00
2023-01-13T12:36:46.788Z,51.20
2023-01-13T12:39:22.927Z,49.60
2023-01-13T12:41:54.333Z,48.40
2023-01-13T12:44:21.020Z,47.20
2023-01-13T12:46:51.540Z,47.70
2023-01-13T12:49:20.548Z,48.30
2023-01-13T12:52:13.845Z,48.30
2023-01-13T12:55:16.653Z,48.40
2023-01-13T12:58:17.691Z,49.50
2023-01-13T13:01:00.065Z,49.00
2023-01-13T13:03:32.797Z,48.60
2023-01-13T13:06:08.873Z,48.60
2023-01-13T13:08:53.351Z,49.80
2023-01-13T13:11:23.555Z,48.80
2023-01-13T13:13:50.279Z,49.20
2023-01-13T13:16:55.101Z,49.60
2023-01-13T13:19:40.974Z,48.50
2023-01-13T13:22:33.957Z,50.00
2023-01-13T13:25:21.489Z,47.30
2023-01-13T13:27:58.974Z,48.30
2023-01-13T13:30:29.596Z,48.00
2023-01-13T13:33:14.225Z,48.60
2023-01-13T13:35:55.415Z,49.20
2023-01-13T13:38:48.639Z,50.70
2023-01-13T13:41:20.658Z,50.20
2023-01-13T13:43:47.467Z,50.60
2023-01-13T13:46:27.854Z,50.80
2023-01-13T13:48:55.009Z,50.90
2023-01-13T13:51:27.619Z,51.10
2023-01-13T13:53:55.336Z,50.80
2023-01-13T13:56:26.459Z,50.40
2023-01-13T13:58:54.183Z,50.10
2023-01-13T14:01:25.067Z,52.20
2023-01-13T14:04:06.128Z,50.80
2023-01-13T14:06:33.725Z,50.50
2023-01-13T14:09:02.044Z,50.70
2023-01-13T14:11:32.580Z,48.80
2023-01-13T14:14:04.896Z,49.50
2023-01-13T14:16:32.420Z,49.00
2023-01-13T14:18:59.717Z,50.20
2023-01-13T14:21:28.239Z,50.20
2023-01-13T14:23:57.736Z,50.60
2023-01-13T14:26:26.817Z,51.50
2023-01-13T14:28:56.348Z,51.90
2023-01-13T14:31:23.580Z,51.70
2023-01-13T14:33:54.190Z,51.50
2023-01-13T14:36:22.242Z,50.70
2023-01-13T14:38:50.570Z,51.90
2023-01-13T14:41:25.611Z,52.00
2023-01-13T14:43:56.941Z,51.80
2023-01-13T14:46:24.243Z,51.60
2023-01-13T14:48:54.486Z,52.10
2023-01-13T14:51:25.243Z,52.30
2023-01-13T14:53:52.315Z,52.00
2023-01-13T14:56:42.588Z,51.90
2023-01-13T14:59:35.984Z,52.20
2023-01-13T15:02:18.115Z,51.80
2023-01-13T15:04:44.774Z,52.40
2023-01-13T15:07:26.190Z,52.20
2023-01-13T15:09:55.210Z,51.60
2023-01-13T15:12:30.309Z,51.00
2023-01-13T15:14:58.376Z,51.80
2023-01-13T15:17:25.042Z,51.80
2023-01-13T15:19:53.476Z,52.40
2023-01-13T15:22:20.176Z,52.50
2023-01-13T15:24:46.914Z,51.50
2023-01-13T15:27:18.187Z,52.00
2023-01-13T15:29:44.928Z,52.20
2023-01-13T15:32:18.041Z,53.00
2023-01-13T15:34:44.971Z,51.80
2023-01-13T15:37:11.632Z,51.50
2023-01-13T15:39:38.267Z,51.50
2023-01-13T15:42:05.034Z,51.90
2023-01-13T15:44:31.675Z,52.00
2023-01-13T15:47:00.233Z,52.10
2023-01-13T15:49:30.331Z,51.40
2023-01-13T15:51:57.003Z,52.10
2023-01-13T15:54:23.672Z,52.50
2023-01-13T15:56:51.041Z,53.30
2023-01-13T15:59:20.970Z,53.20
2023-01-13T16:01:47.771Z,52.50
2023-01-13T16:04:14.484Z,52.60
2023-01-13T16:06:43.069Z,52.40
2023-01-13T16:09:12.837Z,52.70
2023-01-13T16:11:39.552Z,52.30
2023-01-13T16:14:06.241Z,53.00
2023-01-13T16:16:33.183Z,52.90
2023-01-13T16:18:59.986Z,52.70
2023-01-13T16:21:26.673Z,52.10
2023-01-13T16:23:54.763Z,52.30
2023-01-13T16:26:23.031Z,52.00
2023-01-13T16:28:50.687Z,51.90
2023-01-13T16:31:22.259Z,52.30
2023-01-13T16:33:49.029Z,52.00
2023-01-13T16:36:16.482Z,52.50
2023-01-13T16:38:43.459Z,52.50
2023-01-13T16:41:11.447Z,53.60
2023-01-13T16:43:38.554Z,53.00
2023-01-13T16:46:17.360Z,53.20
2023-01-13T16:48:44.139Z,52.60
2023-01-13T16:51:10.819Z,53.40
2023-01-13T16:53:37.565Z,53.20
2023-01-13T16:56:21.024Z,53.30
2023-01-13T16:58:47.922Z,53.60
2023-01-13T17:01:19.694Z,53.80
2023-01-13T17:03:46.786Z,53.60
2023-01-13T17:06:13.597Z,54.30
2023-01-13T17:08:40.276Z,53.70
2023-01-13T17:11:07.015Z,53.70
2023-01-13T17:13:35.032Z,53.40
2023-01-13T17:16:01.735Z,53.20
2023-01-13T17:18:28.525Z,53.50
2023-01-13T17:20:55.193Z,54.00
2023-01-13T17:23:21.854Z,53.90
2023-01-13T17:25:48.540Z,53.80
2023-01-13T17:28:15.215Z,53.80
2023-01-13T17:30:44.875Z,54.20
2023-01-13T17:33:12.528Z,54.00
2023-01-13T17:35:39.306Z,53.90
2023-01-13T17:38:06.032Z,54.00
2023-01-13T17:40:32.729Z,53.80
2023-01-13T17:42:59.385Z,53.50
2023-01-13T17:45:26.048Z,54.10
2023-01-13T17:47:56.827Z,54.20
2023-01-13T17:50:23.646Z,53.70
2023-01-13T17:52:50.452Z,53.50
2023-01-13T17:55:17.305Z,54.00
2023-01-13T17:57:43.983Z,53.90
2023-01-13T18:00:11.929Z,53.90
2023-01-13T18:02:38.715Z,54.10
2023-01-13T18:05:07.303Z,54.20
2023-01-13T18:07:33.996Z,54.00
2023-01-13T18:10:00.673Z,54.20
2023-01-13T18:12:27.335Z,53.90
2023-01-13T18:14:54.070Z,54.50
2023-01-13T18:17:20.739Z,54.10
2023-01-13T18:19:47.424Z,53.80
2023-01-13T18:22:15.504Z,54.60
2023-01-13T18:24:42.327Z,54.10
2023-01-13T18:27:11.805Z,53.70
2023-01-13T18:29:38.482Z,54.00
2023-01-13T18:32:05.939Z,53.70
2023-01-13T18:34:32.816Z,54.10
2023-01-13T18:36:59.474Z,54.00
2023-01-13T18:39:27.766Z,54.00
2023-01-13T18:41:54.479Z,54.00
2023-01-13T18:44:21.436Z,54.10
2023-01-13T18:46:48.169Z,54.00
2023-01-13T18:49:15.058Z,53.80
2023-01-13T18:51:41.738Z,54.20
2023-01-13T18:54:08.435Z,53.70
2023-01-13T18:56:36.540Z,54.20
2023-01-13T18:59:03.904Z,54.50
2023-01-13T19:01:30.795Z,54.50
2023-01-13T19:03:58.449Z,54.50
2023-01-13T19:06:26.226Z,53.60
2023-01-13T19:08:53.451Z,53.80
2023-01-13T19:11:21.035Z,54.00
2023-01-13T19:13:49.716Z,54.40
2023-01-13T19:16:17.498Z,54.40
2023-01-13T19:18:44.486Z,54.50
2023-01-13T19:21:12.353Z,54.60
2023-01-13T19:23:39.126Z,54.30
2023-01-13T19:26:07.780Z,54.10
2023-01-13T19:28:35.348Z,54.40
2023-01-13T19:31:04.980Z,54.10
2023-01-13T19:33:34.253Z,54.10
2023-01-13T19:36:01.543Z,53.60
2023-01-13T19:38:28.432Z,53.70
2023-01-13T19:40:55.701Z,53.80
2023-01-13T19:43:22.800Z,53.80
2023-01-13T19:45:50.734Z,53.60
2023-01-13T19:48:18.765Z,53.90
2023-01-13T19:50:45.415Z,53.60
2023-01-13T19:53:16.780Z,53.40
2023-01-13T19:55:44.604Z,53.70
2023-01-13T19:58:11.311Z,54.10
2023-01-13T20:00:37.947Z,53.80
2023-01-13T20:03:04.655Z,53.50
2023-01-13T20:05:32.702Z,54.30
2023-01-13T20:07:59.390Z,53.60
2023-01-13T20:10:26.086Z,53.80
2023-01-13T20:12:52.816Z,53.70
2023-01-13T20:15:19.496Z,53.90
2023-01-13T20:17:46.149Z,54.00
2023-01-13T20:20:13.003Z,54.30
2023-01-13T20:22:41.103Z,54.60
2023-01-13T20:25:08.927Z,54.30
2023-01-13T20:27:36.096Z,54.30
2023-01-13T20:30:03.031Z,54.10
2023-01-13T20:32:29.703Z,54.10
2023-01-13T20:34:56.388Z,54.30
2023-01-13T20:37:23.056Z,54.60
2023-01-13T20:39:51.274Z,54.30
2023-01-13T20:42:17.951Z,54.30
2023-01-13T20:44:44.621Z,54.40
2023-01-13T20:47:11.320Z,54.30
2023-01-13T20:49:41.472Z,54.40
2023-01-13T20:52:08.168Z,54.70
2023-01-13T20:54:35.140Z,54.50
2023-01-13T20:57:03.522Z,54.70
2023-01-13T20:59:30.248Z,54.60
2023-01-13T21:01:56.932Z,54.60
2023-01-13T21:04:26.154Z,55.00
2023-01-13T21:06:52.952Z,54.70
2023-01-13T21:09:19.801Z,54.50
2023-01-13T21:11:46.508Z,54.60
2023-01-13T21:14:16.820Z,54.40
2023-01-13T21:16:43.483Z,54.20
2023-01-13T21:19:10.143Z,54.40
2023-01-13T21:21:37.071Z,54.40
2023-01-13T21:24:04.183Z,54.60
2023-01-13T21:26:30.968Z,54.60
2023-01-13T21:28:58.443Z,54.60
2023-01-13T21:31:27.381Z,54.80
2023-01-13T21:33:54.423Z,54.70
2023-01-13T21:36:21.117Z,54.70
2023-01-13T21:38:50.884Z,54.60
2023-01-13T21:41:17.594Z,54.60
2023-01-13T21:43:44.261Z,54.80
2023-01-13T21:46:13.020Z,54.60
2023-01-13T21:48:41.113Z,54.60
2023-01-13T21:51:07.821Z,54.60
2023-01-13T21:53:34.517Z,54.60
2023-01-13T21:56:01.331Z,54.40
2023-01-13T21:58:28.152Z,54.60
2023-01-13T22:00:54.964Z,54.70
2023-01-13T22:03:21.713Z,54.20
2023-01-13T22:05:55.211Z,54.20
2023-01-13T22:08:21.895Z,53.90
2023-01-13T22:10:48.564Z,54.30
2023-01-13T22:13:22.003Z,54.10
2023-01-13T22:15:48.772Z,54.20
2023-01-13T22:18:15.476Z,54.80
2023-01-13T22:20:42.280Z,54.20
2023-01-13T22:23:10.345Z,54.30
2023-01-13T22:25:37.053Z,54.30
2023-01-13T22:28:03.799Z,54.10
2023-01-13T22:30:30.514Z,54.30
2023-01-13T22:32:57.209Z,54.00
2023-01-13T22:35:23.863Z,54.30
2023-01-13T22:37:50.536Z,54.40
2023-01-13T22:40:18.782Z,54.40
2023-01-13T22:42:45.571Z,54.40
2023-01-13T22:45:13.839Z,54.50
2023-01-13T22:47:40.822Z,54.30
2023-01-13T22:50:09.081Z,54.50
2023-01-13T22:52:36.049Z,54.40
2023-01-13T22:55:02.805Z,54.50
2023-01-13T22:57:35.976Z,54.50
2023-01-13T23:00:10.492Z,54.50
2023-01-13T23:02:37.992Z,54.50
2023-01-13T23:05:05.266Z,54.40
2023-01-13T23:07:32.042Z,54.50
2023-01-13T23:09:58.702Z,54.50
2023-01-13T23:12:25.513Z,54.40
2023-01-13T23:14:53.537Z,54.50
2023-01-13T23:17:20.294Z,54.40
2023-01-13T23:19:47.013Z,54.60
2023-01-13T23:22:13.675Z,54.80
2023-01-13T23:24:40.444Z,54.70
2023-01-13T23:27:07.196Z,54.80
2023-01-13T23:29:33.930Z,54.90
2023-01-13T23:32:01.916Z,55.00
2023-01-13T23:34:28.624Z,55.00
2023-01-13T23:36:55.381Z,54.90
2023-01-13T23:39:22.176Z,55.10
2023-01-13T23:41:48.868Z,55.10
2023-01-13T23:44:15.587Z,55.30
2023-01-13T23:46:42.364Z,55.50
2023-01-13T23:49:10.461Z,55.60
2023-01-13T23:51:37.209Z,55.60
2023-01-13T23:54:04.061Z,55.70
2023-01-13T23:56:31.345Z,55.90
2023-01-13T23:58:58.134Z,55.90
